BNI weather

Benin Airport
Benin, Edo, Nigeria

Public forecast

Using degrees Celsius for public forecast. Weather courtesy of forecast.io.

Current aviation weather report (METAR) for Benin Airport

Report is more than 6 hours old.

Retrieved 2020/04/11 11:00 UTC (2 months ago):

DNBE 111100Z 00000KT 9999 FEW010 30/24 Q1013

Aviation forecast (TAF) for Benin Airport

Retrieved 2020/06/01 18:00 UTC (5 hours ago):

TAF DNBE 011700Z 0118/0224 VRB02KT 9999 SCT011 PROB30 0205/0208 3000 BR BECMG 0209/0211 22010KT BKN012 TEMPO 0212/0217 TS BKN012 TEMPO 0212/0217 TS BKN012 FEW020CB BECMG 0218/0220 VRB02KT SCT011